Time;durP1;ratioP1;P1;durP2;ratioP2;P2;SDS_P1;SDS_P2;PMS_P1;PMS_P2;Temp;Humidity;BMP_temperature;BMP_pressure;BME280_temperature;BME280_humidity;BME280_pressure;Samples;Min_cycle;Max_cycle;Signal;HPM_P1;HPM_P2
2023/08/31 00:00:42;;;;;;;2.42;0.70;;;11.20;99.90;;;;;;6120249;23;20050;-66
2023/08/31 00:03:09;;;;;;;4.78;1.25;;;11.20;99.90;;;;;;6120787;23;20438;-66
2023/08/31 00:05:39;;;;;;;3.08;1.00;;;11.20;99.90;;;;;;6120619;23;20314;-66
2023/08/31 00:08:06;;;;;;;2.65;0.88;;;11.30;99.90;;;;;;6093343;23;20044;-66
2023/08/31 00:10:31;;;;;;;2.75;1.05;;;11.30;99.90;;;;;;6120439;23;20392;-66
2023/08/31 00:12:57;;;;;;;4.30;1.20;;;11.30;99.90;;;;;;6120637;23;20063;-66
2023/08/31 00:15:23;;;;;;;2.65;0.82;;;11.40;99.90;;;;;;6120522;23;20059;-67
2023/08/31 00:17:50;;;;;;;5.15;1.00;;;11.40;99.90;;;;;;6093681;23;20025;-67
2023/08/31 00:20:16;;;;;;;4.65;0.80;;;11.40;99.90;;;;;;6120433;23;20013;-66
2023/08/31 00:22:41;;;;;;;2.42;0.70;;;11.50;99.90;;;;;;6120721;23;20006;-66
2023/08/31 00:25:08;;;;;;;2.03;0.40;;;11.60;99.90;;;;;;6120465;23;20054;-66
2023/08/31 00:27:34;;;;;;;2.95;0.55;;;11.60;99.90;;;;;;6119670;23;20396;-67
2023/08/31 00:30:00;;;;;;;2.58;0.70;;;11.70;99.90;;;;;;6120107;23;20022;-67
2023/08/31 00:32:25;;;;;;;3.97;0.80;;;11.70;99.90;;;;;;6121030;23;20006;-66
2023/08/31 00:34:51;;;;;;;3.13;1.35;;;11.70;99.90;;;;;;6094261;23;20386;-67
2023/08/31 00:37:17;;;;;;;10.32;1.15;;;11.70;99.90;;;;;;6119468;23;20342;-67
2023/08/31 00:39:43;;;;;;;5.35;0.80;;;11.70;99.90;;;;;;6120214;23;20337;-67
2023/08/31 00:42:09;;;;;;;2.47;0.70;;;11.80;99.90;;;;;;6094850;23;20018;-66
2023/08/31 00:44:35;;;;;;;4.00;1.08;;;11.80;99.90;;;;;;6094484;23;20050;-67
2023/08/31 00:47:02;;;;;;;4.22;0.70;;;11.70;99.90;;;;;;6119022;23;20024;-67
2023/08/31 00:49:28;;;;;;;2.17;0.50;;;11.70;99.90;;;;;;6094254;23;20406;-67
2023/08/31 00:51:56;;;;;;;2.75;0.60;;;11.70;99.90;;;;;;6120359;23;20006;-67
2023/08/31 00:54:22;;;;;;;2.95;0.52;;;11.70;99.90;;;;;;6120748;23;20311;-66
2023/08/31 00:56:52;;;;;;;5.75;0.70;;;11.70;99.90;;;;;;6118982;23;20067;-66
2023/08/31 00:59:18;;;;;;;5.90;0.50;;;11.70;99.90;;;;;;6094073;23;20013;-67
2023/08/31 01:01:54;;;;;;;2.63;0.77;;;11.70;99.90;;;;;;6094228;23;20025;-67
2023/08/31 01:04:54;;;;;;;4.03;0.70;;;11.70;99.90;;;;;;6094833;23;20018;-66
2023/08/31 01:07:52;;;;;;;5.10;1.63;;;11.60;99.90;;;;;;6093114;23;20017;-67
2023/08/31 01:10:20;;;;;;;1.38;0.47;;;11.60;99.90;;;;;;6120853;23;20740;-67
2023/08/31 01:13:24;;;;;;;3.25;0.68;;;11.60;99.90;;;;;;6094303;23;20014;-67
2023/08/31 01:15:55;;;;;;;1.10;0.50;;;11.60;99.90;;;;;;6096549;23;20022;-67
2023/08/31 01:18:25;;;;;;;2.10;0.45;;;11.60;99.90;;;;;;6119326;23;20054;-67
2023/08/31 01:21:34;;;;;;;1.77;0.30;;;11.50;99.90;;;;;;6120151;23;20018;-67
2023/08/31 01:24:01;;;;;;;0.65;0.30;;;11.50;99.90;;;;;;6120328;23;20487;-67
2023/08/31 01:26:27;;;;;;;4.07;0.45;;;11.80;99.90;;;;;;6119169;23;20006;-66
2023/08/31 01:28:55;;;;;;;3.35;0.30;;;11.50;99.90;;;;;;6120011;23;20132;-67
2023/08/31 01:31:21;;;;;;;3.55;0.43;;;11.50;99.90;;;;;;6119973;23;20014;-66
2023/08/31 01:33:47;;;;;;;1.80;0.93;;;11.40;99.90;;;;;;6120699;23;20340;-67
2023/08/31 01:36:29;;;;;;;4.85;0.60;;;11.50;99.90;;;;;;6118296;23;20014;-67
2023/08/31 01:39:14;;;;;;;2.88;0.75;;;11.40;99.90;;;;;;6119512;23;20010;-66
2023/08/31 01:41:46;;;;;;;4.32;0.40;;;11.40;99.90;;;;;;6120240;23;20068;-66
2023/08/31 01:44:16;;;;;;;2.05;0.38;;;11.40;99.90;;;;;;6120201;23;20445;-67
2023/08/31 01:46:42;;;;;;;2.35;0.40;;;11.40;99.90;;;;;;6118614;23;20014;-66
2023/08/31 01:49:10;;;;;;;2.70;0.28;;;11.30;99.90;;;;;;6120210;23;20068;-66
2023/08/31 01:51:35;;;;;;;1.38;0.30;;;11.30;99.90;;;;;;6120115;23;20006;-66
2023/08/31 01:54:01;;;;;;;2.50;0.50;;;11.30;99.90;;;;;;6120541;23;20018;-66
2023/08/31 01:56:27;;;;;;;2.42;0.30;;;11.30;99.90;;;;;;6119027;23;20014;-66
2023/08/31 01:58:53;;;;;;;0.82;0.22;;;11.30;99.90;;;;;;6093852;23;20028;-67
2023/08/31 02:01:18;;;;;;;3.33;0.70;;;11.30;99.90;;;;;;6119436;23;20016;-66
2023/08/31 02:03:44;;;;;;;1.58;0.30;;;11.30;99.90;;;;;;6120595;23;20029;-66
2023/08/31 02:06:09;;;;;;;1.52;0.40;;;11.20;99.90;;;;;;6093047;23;20093;-66
2023/08/31 02:08:35;;;;;;;3.25;0.50;;;11.20;99.90;;;;;;6119517;23;20049;-66
2023/08/31 02:11:00;;;;;;;2.63;0.98;;;11.20;99.90;;;;;;6120252;23;20319;-67
2023/08/31 02:13:27;;;;;;;5.35;0.68;;;11.20;99.90;;;;;;6120311;23;20198;-66
2023/08/31 02:15:53;;;;;;;3.47;0.85;;;11.20;99.90;;;;;;6119528;23;20326;-67
2023/08/31 02:18:19;;;;;;;1.80;0.60;;;11.20;99.90;;;;;;6093084;23;20460;-67
2023/08/31 02:20:44;;;;;;;3.78;0.77;;;11.20;99.90;;;;;;6093846;23;20025;-66
2023/08/31 02:23:11;;;;;;;4.32;1.33;;;11.20;99.90;;;;;;6094494;23;20376;-66
2023/08/31 02:25:37;;;;;;;2.88;1.05;;;11.30;99.90;;;;;;6093360;23;20046;-66
2023/08/31 02:28:03;;;;;;;2.97;1.00;;;11.20;99.90;;;;;;6093261;23;20022;-67
2023/08/31 02:30:29;;;;;;;1.75;1.20;;;11.20;99.90;;;;;;6119302;23;20461;-66
2023/08/31 02:32:54;;;;;;;3.20;1.23;;;11.20;99.90;;;;;;6120304;23;20014;-66
2023/08/31 02:35:20;;;;;;;2.40;1.27;;;11.20;99.90;;;;;;6093305;23;20022;-66
2023/08/31 02:37:45;;;;;;;3.95;1.30;;;11.20;99.90;;;;;;6118564;23;20018;-66
2023/08/31 02:40:11;;;;;;;3.15;1.52;;;11.20;99.90;;;;;;6093266;23;20022;-67
2023/08/31 02:42:37;;;;;;;2.38;1.65;;;11.20;99.90;;;;;;6093940;23;20429;-67
2023/08/31 02:45:03;;;;;;;1.98;1.40;;;11.20;99.90;;;;;;6093073;23;20022;-67
2023/08/31 02:47:29;;;;;;;7.18;1.75;;;11.20;99.90;;;;;;6118174;23;20064;-67
2023/08/31 02:49:56;;;;;;;2.85;1.50;;;11.20;99.90;;;;;;6093241;23;20018;-66
2023/08/31 02:52:21;;;;;;;3.72;1.33;;;11.20;99.90;;;;;;6119957;23;20014;-66
2023/08/31 02:54:47;;;;;;;1.98;1.10;;;11.20;99.90;;;;;;6119487;23;20106;-67
2023/08/31 02:57:12;;;;;;;2.72;0.88;;;11.20;99.90;;;;;;6118588;23;20017;-67
2023/08/31 02:59:38;;;;;;;3.88;1.20;;;11.20;99.90;;;;;;6093941;23;20037;-67
2023/08/31 03:02:04;;;;;;;3.25;1.27;;;11.20;99.90;;;;;;6068587;23;20014;-66
2023/08/31 03:04:30;;;;;;;3.70;0.90;;;11.20;99.90;;;;;;6119884;23;20018;-66
2023/08/31 03:06:56;;;;;;;2.45;0.90;;;11.20;99.90;;;;;;6092326;23;20014;-66
2023/08/31 03:09:21;;;;;;;2.85;0.98;;;11.20;99.90;;;;;;6119663;23;20318;-66
2023/08/31 03:11:47;;;;;;;2.97;1.15;;;11.20;99.90;;;;;;6117413;23;20093;-66
2023/08/31 03:14:13;;;;;;;1.20;0.80;;;11.20;99.90;;;;;;6093071;23;20020;-66
2023/08/31 03:16:38;;;;;;;3.72;0.82;;;11.20;99.90;;;;;;6118142;23;20021;-66
2023/08/31 03:19:05;;;;;;;6.80;0.90;;;11.20;99.90;;;;;;6093771;23;20022;-66
2023/08/31 03:21:31;;;;;;;2.88;1.00;;;11.20;99.90;;;;;;6118581;23;20018;-66
2023/08/31 03:23:56;;;;;;;2.97;0.98;;;11.20;99.90;;;;;;6119822;23;20364;-66
2023/08/31 03:26:22;;;;;;;1.88;1.02;;;11.10;99.90;;;;;;6092811;23;20098;-66
2023/08/31 03:28:47;;;;;;;3.80;1.33;;;11.20;99.90;;;;;;6093132;23;20018;-66
2023/08/31 03:31:13;;;;;;;1.90;1.33;;;11.20;99.90;;;;;;6118833;23;20010;-66
2023/08/31 03:33:38;;;;;;;3.53;1.50;;;11.20;99.90;;;;;;6093761;23;20021;-66
2023/08/31 03:36:04;;;;;;;2.90;1.60;;;11.20;99.90;;;;;;6093628;23;20049;-66
2023/08/31 03:38:31;;;;;;;3.67;2.28;;;11.20;99.90;;;;;;6070305;23;20018;-67
2023/08/31 03:40:57;;;;;;;3.35;2.50;;;11.10;99.90;;;;;;6120130;23;20029;-67
2023/08/31 03:43:23;;;;;;;3.20;2.88;;;11.20;99.90;;;;;;6121132;23;20117;-67
2023/08/31 03:45:55;;;;;;;3.75;3.35;;;11.20;99.90;;;;;;6120675;23;20056;-67
2023/08/31 03:48:21;;;;;;;3.53;3.17;;;11.20;99.90;;;;;;6119982;23;20457;-67
2023/08/31 03:50:50;;;;;;;3.47;3.17;;;11.20;99.90;;;;;;6094212;23;20044;-67
2023/08/31 03:53:15;;;;;;;7.90;4.22;;;11.20;99.90;;;;;;6121085;23;20045;-66
2023/08/31 03:55:41;;;;;;;4.43;3.97;;;11.30;99.90;;;;;;6119607;23;20021;-67
2023/08/31 03:58:06;;;;;;;4.47;4.07;;;11.20;99.90;;;;;;6119959;23;20022;-67
2023/08/31 04:00:32;;;;;;;5.60;4.15;;;11.30;99.90;;;;;;6119653;23;20014;-66
2023/08/31 04:02:58;;;;;;;4.70;4.28;;;11.30;99.90;;;;;;6069945;23;20500;-66
2023/08/31 04:05:23;;;;;;;6.78;5.20;;;11.30;99.90;;;;;;6094040;23;20322;-66
2023/08/31 04:07:49;;;;;;;7.43;4.47;;;11.30;99.90;;;;;;6093293;23;20461;-66
2023/08/31 04:10:14;;;;;;;4.70;4.20;;;11.40;99.90;;;;;;6118990;23;20018;-66
2023/08/31 04:12:40;;;;;;;5.25;4.32;;;11.30;99.90;;;;;;6120413;23;20018;-66
2023/08/31 04:15:06;;;;;;;9.43;4.88;;;11.40;99.90;;;;;;6094301;23;20025;-66
2023/08/31 04:17:32;;;;;;;5.72;4.47;;;11.40;99.90;;;;;;6119585;23;20014;-67
2023/08/31 04:19:58;;;;;;;5.40;5.00;;;11.40;99.90;;;;;;6120181;23;20014;-67
2023/08/31 04:22:23;;;;;;;6.18;5.00;;;11.40;99.90;;;;;;6120683;23;20021;-66
2023/08/31 04:24:49;;;;;;;5.43;4.90;;;11.40;99.90;;;;;;6120189;23;20006;-67
2023/08/31 04:27:14;;;;;;;5.03;4.53;;;11.50;99.90;;;;;;6119049;23;20064;-67
2023/08/31 04:29:40;;;;;;;5.25;4.75;;;11.50;99.90;;;;;;6094163;23;20121;-67
2023/08/31 04:32:05;;;;;;;6.38;4.70;;;11.50;99.90;;;;;;6120432;23;20326;-67
2023/08/31 04:34:31;;;;;;;6.53;5.30;;;11.60;99.90;;;;;;6120254;23;20020;-67
2023/08/31 04:36:57;;;;;;;5.97;4.57;;;11.50;99.90;;;;;;6118414;23;20017;-66
2023/08/31 04:39:22;;;;;;;7.75;5.13;;;11.60;99.90;;;;;;6120122;23;20437;-67
2023/08/31 04:41:48;;;;;;;6.07;4.13;;;11.60;99.90;;;;;;6120217;23;20014;-67
2023/08/31 04:44:13;;;;;;;5.65;3.80;;;11.50;99.90;;;;;;6094425;23;20022;-67
2023/08/31 04:46:39;;;;;;;10.68;4.78;;;11.50;99.90;;;;;;6118592;23;20018;-67
2023/08/31 04:49:04;;;;;;;7.13;3.72;;;11.50;99.90;;;;;;6094460;23;20076;-66
2023/08/31 04:51:35;;;;;;;4.90;4.20;;;11.40;99.90;;;;;;6093919;23;20049;-66
2023/08/31 04:54:00;;;;;;;7.05;3.30;;;11.50;99.90;;;;;;6120371;23;20014;-66
2023/08/31 04:56:34;;;;;;;5.32;3.50;;;11.40;99.90;;;;;;6118942;23;20017;-66
2023/08/31 04:59:00;;;;;;;5.57;3.72;;;11.40;99.90;;;;;;6094096;23;20017;-66
2023/08/31 05:01:26;;;;;;;4.10;3.70;;;11.40;99.90;;;;;;6119770;23;20327;-66
2023/08/31 05:03:52;;;;;;;7.03;3.47;;;11.40;99.90;;;;;;6094565;23;20062;-66
2023/08/31 05:06:17;;;;;;;6.32;3.90;;;11.50;99.90;;;;;;6093645;23;20022;-66
2023/08/31 05:08:43;;;;;;;5.75;3.70;;;11.40;99.90;;;;;;6093628;23;20010;-67
2023/08/31 05:11:08;;;;;;;3.90;3.55;;;11.50;99.90;;;;;;6120472;23;20014;-66
2023/08/31 05:13:35;;;;;;;6.15;3.33;;;11.50;99.90;;;;;;6094471;23;20440;-67
2023/08/31 05:16:00;;;;;;;5.20;3.50;;;11.60;99.90;;;;;;6119860;23;20006;-66
2023/08/31 05:18:26;;;;;;;5.60;3.47;;;11.50;99.90;;;;;;6093117;23;20068;-66
2023/08/31 05:20:51;;;;;;;4.65;3.45;;;11.50;99.90;;;;;;6093781;23;20024;-66
2023/08/31 05:23:17;;;;;;;6.43;4.00;;;11.50;99.90;;;;;;6094331;23;20053;-67
2023/08/31 05:25:43;;;;;;;5.85;3.58;;;11.60;99.90;;;;;;6119906;23;20025;-66
2023/08/31 05:28:09;;;;;;;4.25;3.08;;;11.60;99.90;;;;;;6093058;23;20072;-66
2023/08/31 05:30:35;;;;;;;2.72;2.45;;;11.80;99.90;;;;;;6069988;23;20342;-66
2023/08/31 05:33:04;;;;;;;2.53;2.13;;;12.50;99.90;;;;;;6120292;23;20503;-66
2023/08/31 05:35:30;;;;;;;3.20;1.75;;;13.40;99.90;;;;;;6119758;23;20014;-67
2023/08/31 05:37:56;;;;;;;3.92;1.63;;;14.30;99.90;;;;;;6118806;23;20493;-66
2023/08/31 05:40:22;;;;;;;2.45;1.58;;;14.60;99.90;;;;;;6119355;23;20094;-66
2023/08/31 05:42:47;;;;;;;4.65;2.20;;;14.80;99.90;;;;;;6117256;23;20329;-66
2023/08/31 05:45:13;;;;;;;3.90;1.48;;;14.90;99.90;;;;;;6065815;23;20025;-67
2023/08/31 05:47:40;;;;;;;2.53;1.35;;;14.90;99.90;;;;;;6114461;23;20302;-67
2023/08/31 05:50:07;;;;;;;4.40;1.70;;;15.20;99.90;;;;;;6091497;23;20101;-66
2023/08/31 05:52:32;;;;;;;3.03;1.35;;;15.80;99.90;;;;;;6119327;23;20017;-66
2023/08/31 05:54:58;;;;;;;5.72;1.20;;;16.30;99.90;;;;;;6119442;23;20010;-67
2023/08/31 05:57:23;;;;;;;2.30;0.85;;;17.30;99.90;;;;;;6117640;23;20044;-66
2023/08/31 05:59:49;;;;;;;3.63;1.00;;;18.10;99.90;;;;;;6119009;23;20021;-66
2023/08/31 06:02:15;;;;;;;4.55;1.42;;;19.00;99.90;;;;;;6120109;23;20010;-66
2023/08/31 06:04:41;;;;;;;2.63;0.60;;;20.10;99.90;;;;;;6093350;23;20050;-66
2023/08/31 06:07:06;;;;;;;4.25;0.65;;;21.10;99.90;;;;;;6118530;23;20084;-67
2023/08/31 06:09:32;;;;;;;1.92;0.80;;;21.20;99.90;;;;;;6119618;23;20026;-67
2023/08/31 06:11:58;;;;;;;4.53;0.95;;;21.30;99.90;;;;;;6119554;23;20018;-67
2023/08/31 06:14:23;;;;;;;3.15;0.60;;;21.90;99.90;;;;;;6120136;23;20014;-66
2023/08/31 06:16:49;;;;;;;2.25;0.68;;;22.80;99.90;;;;;;6118029;23;20010;-66
2023/08/31 06:19:15;;;;;;;3.00;0.70;;;23.40;99.90;;;;;;6119528;23;20018;-66
2023/08/31 06:21:41;;;;;;;1.67;0.70;;;24.10;99.90;;;;;;6093156;23;20033;-66
2023/08/31 06:24:09;;;;;;;3.50;0.77;;;24.50;99.90;;;;;;6120199;23;20009;-66
2023/08/31 06:26:36;;;;;;;3.03;0.60;;;25.10;99.90;;;;;;6118016;23;20040;-66
2023/08/31 06:29:03;;;;;;;2.22;0.50;;;25.70;99.90;;;;;;6093802;23;20030;-66
2023/08/31 06:31:29;;;;;;;1.50;0.35;;;26.20;99.90;;;;;;6119005;23;20457;-66
2023/08/31 06:33:55;;;;;;;3.42;0.50;;;26.50;99.90;;;;;;6093321;23;20010;-66
2023/08/31 06:36:20;;;;;;;1.15;0.52;;;26.10;99.90;;;;;;6092437;23;20021;-67
2023/08/31 06:38:46;;;;;;;5.20;0.40;;;25.50;99.90;;;;;;6118367;23;20026;-66
2023/08/31 06:41:11;;;;;;;3.28;0.32;;;25.00;99.90;;;;;;6093265;23;20143;-66
2023/08/31 06:43:37;;;;;;;4.30;0.40;;;24.40;99.90;;;;;;6119449;23;20014;-66
2023/08/31 06:46:03;;;;;;;2.25;0.57;;;24.00;99.90;;;;;;6118937;23;20018;-66
2023/08/31 06:48:28;;;;;;;4.07;1.25;;;23.40;99.90;;;;;;6118989;23;20018;-66
2023/08/31 06:50:55;;;;;;;3.40;0.65;;;23.00;99.90;;;;;;6092873;23;20329;-66
2023/08/31 06:53:21;;;;;;;7.30;1.30;;;22.80;99.90;;;;;;6117295;23;20480;-66
2023/08/31 06:55:47;;;;;;;7.25;1.23;;;22.50;99.90;;;;;;6117093;23;20010;-66
2023/08/31 06:58:12;;;;;;;2.33;0.75;;;22.30;99.90;;;;;;6092140;23;20025;-66
2023/08/31 07:00:38;;;;;;;5.95;0.93;;;22.00;99.90;;;;;;6090481;23;20022;-65
2023/08/31 07:03:06;;;;;;;1.88;0.70;;;21.80;99.90;;;;;;6118727;23;20013;-66
2023/08/31 07:05:35;;;;;;;1.98;0.57;;;21.70;99.90;;;;;;6092600;23;20037;-66
2023/08/31 07:08:02;;;;;;;1.73;0.60;;;21.40;99.90;;;;;;6117289;23;20029;-66
2023/08/31 07:10:28;;;;;;;2.28;0.57;;;21.10;99.90;;;;;;6068629;23;20101;-66
2023/08/31 07:12:53;;;;;;;2.65;0.88;;;20.80;99.90;;;;;;6094822;23;20717;-65
2023/08/31 07:15:19;;;;;;;1.67;0.82;;;20.80;99.90;;;;;;6119757;23;20113;-66
2023/08/31 07:17:44;;;;;;;2.35;0.60;;;20.50;99.90;;;;;;6093537;23;20068;-66
2023/08/31 07:20:11;;;;;;;3.88;0.73;;;20.40;99.90;;;;;;6093818;23;20022;-66
2023/08/31 07:22:37;;;;;;;2.65;0.60;;;20.30;99.90;;;;;;6120037;23;20480;-66
2023/08/31 07:25:04;;;;;;;3.15;0.40;;;20.10;99.90;;;;;;6093442;23;20017;-66
2023/08/31 07:27:29;;;;;;;2.55;0.50;;;19.80;99.90;;;;;;6093177;23;20032;-66
2023/08/31 07:29:55;;;;;;;3.45;0.98;;;19.70;99.90;;;;;;6093049;23;20022;-66
2023/08/31 07:32:22;;;;;;;6.97;1.42;;;19.40;99.90;;;;;;6093916;23;20109;-66
2023/08/31 07:34:47;;;;;;;2.55;0.47;;;19.20;99.90;;;;;;6120062;23;20383;-66
2023/08/31 07:37:13;;;;;;;2.60;0.88;;;19.20;99.90;;;;;;6119259;23;20014;-66
2023/08/31 07:39:39;;;;;;;5.80;0.65;;;19.20;99.90;;;;;;6093782;23;20022;-66
2023/08/31 07:42:05;;;;;;;3.63;1.48;;;19.00;99.90;;;;;;6093570;23;20022;-66
2023/08/31 07:44:31;;;;;;;1.60;0.50;;;18.90;99.90;;;;;;6094530;23;20091;-66
2023/08/31 07:46:57;;;;;;;3.58;0.50;;;18.90;99.90;;;;;;6117588;23;20017;-66
2023/08/31 07:49:23;;;;;;;4.43;0.75;;;18.90;99.90;;;;;;6094081;23;20025;-66
2023/08/31 07:51:49;;;;;;;1.55;0.70;;;18.80;99.90;;;;;;6119120;23;20095;-66
2023/08/31 07:54:21;;;;;;;1.38;0.40;;;18.60;99.90;;;;;;6093394;23;20017;-66
2023/08/31 07:56:47;;;;;;;3.70;0.60;;;18.40;99.90;;;;;;6117777;23;20018;-66
2023/08/31 07:59:13;;;;;;;2.22;0.50;;;18.20;99.90;;;;;;6119245;23;20215;-66
2023/08/31 08:01:38;;;;;;;2.90;0.57;;;18.10;99.90;;;;;;6119166;23;20025;-66
2023/08/31 08:04:04;;;;;;;4.18;0.60;;;18.00;99.90;;;;;;6119832;23;20457;-65
2023/08/31 08:06:30;;;;;;;2.75;0.47;;;18.20;99.90;;;;;;6118886;23;20022;-66
2023/08/31 08:08:56;;;;;;;1.95;0.38;;;18.40;99.90;;;;;;6092123;23;20022;-66
2023/08/31 08:11:22;;;;;;;3.90;0.73;;;18.40;99.90;;;;;;6093889;23;20022;-66
2023/08/31 08:13:48;;;;;;;2.90;0.55;;;18.40;99.90;;;;;;6094102;23;20010;-66
2023/08/31 08:16:14;;;;;;;2.40;0.45;;;18.50;99.90;;;;;;6119295;23;20364;-66
2023/08/31 08:18:40;;;;;;;4.40;0.60;;;18.80;99.90;;;;;;6093298;23;20659;-66
2023/08/31 08:21:06;;;;;;;2.88;1.05;;;18.90;99.90;;;;;;6119481;23;20040;-66
2023/08/31 08:23:31;;;;;;;1.23;0.40;;;18.80;99.90;;;;;;6093023;23;20405;-65
2023/08/31 08:25:59;;;;;;;2.80;0.45;;;18.90;99.90;;;;;;6093271;23;20022;-66
2023/08/31 08:28:25;;;;;;;2.80;0.50;;;19.00;99.90;;;;;;6092336;23;20093;-66
2023/08/31 08:30:51;;;;;;;3.55;0.63;;;19.10;99.90;;;;;;6092764;23;20018;-66
2023/08/31 08:33:16;;;;;;;2.33;0.40;;;19.40;99.90;;;;;;6093639;23;20025;-66
2023/08/31 08:35:42;;;;;;;3.00;0.32;;;19.80;99.90;;;;;;6093003;23;20022;-66
2023/08/31 08:38:08;;;;;;;1.30;0.30;;;20.10;99.90;;;;;;6091786;23;20421;-66
2023/08/31 08:40:35;;;;;;;2.85;0.30;;;20.20;99.90;;;;;;6092946;23;20013;-66
2023/08/31 08:43:01;;;;;;;0.80;0.20;;;20.30;99.90;;;;;;6119871;23;20075;-66
2023/08/31 08:45:36;;;;;;;0.85;0.32;;;20.20;99.90;;;;;;6117390;23;20323;-66
2023/08/31 08:48:02;;;;;;;0.50;0.10;;;19.90;99.90;;;;;;6092246;23;20021;-66
2023/08/31 08:50:29;;;;;;;1.05;0.15;;;19.40;99.90;;;;;;6118764;23;20057;-66
2023/08/31 08:52:54;;;;;;;3.60;0.25;;;18.90;99.90;;;;;;6093362;23;20084;-66
2023/08/31 08:55:22;;;;;;;1.95;0.20;;;18.50;99.90;;;;;;6093891;23;20107;-66
2023/08/31 08:57:47;;;;;;;0.70;0.30;;;18.10;99.90;;;;;;6119287;23;20364;-66
2023/08/31 09:00:13;;;;;;;2.13;0.35;;;17.80;99.90;;;;;;6093780;23;20018;-66
2023/08/31 09:02:39;;;;;;;0.85;0.30;;;17.60;99.90;;;;;;6093484;23;20017;-66
2023/08/31 09:05:04;;;;;;;0.90;0.28;;;17.40;99.90;;;;;;6119935;23;20014;-66
2023/08/31 09:07:34;;;;;;;1.15;0.20;;;17.40;99.90;;;;;;6092876;23;20087;-66
2023/08/31 09:10:00;;;;;;;1.33;0.30;;;17.70;99.90;;;;;;6119262;23;20749;-66
2023/08/31 09:12:25;;;;;;;2.00;0.20;;;18.10;99.90;;;;;;6094299;23;20025;-66
2023/08/31 09:15:02;;;;;;;2.83;0.30;;;18.50;99.90;;;;;;6093704;23;20022;-67
2023/08/31 09:17:44;;;;;;;3.15;0.47;;;19.00;99.90;;;;;;6118582;23;20469;-66
2023/08/31 09:20:10;;;;;;;1.33;0.47;;;19.50;99.90;;;;;;6119277;23;20453;-66
2023/08/31 09:22:35;;;;;;;1.35;0.20;;;19.60;99.90;;;;;;6094077;23;20014;-66
2023/08/31 09:25:02;;;;;;;1.65;0.20;;;19.50;99.90;;;;;;6119659;23;20022;-66
2023/08/31 09:27:28;;;;;;;4.80;0.60;;;19.40;99.90;;;;;;6093073;23;20018;-66
2023/08/31 09:29:57;;;;;;;3.30;0.30;;;19.30;99.90;;;;;;6119188;23;20135;-66
2023/08/31 09:32:23;;;;;;;4.00;0.38;;;19.20;99.90;;;;;;6094138;23;20021;-66
2023/08/31 09:34:49;;;;;;;1.17;0.25;;;19.10;99.90;;;;;;6093105;23;20014;-66
2023/08/31 09:37:16;;;;;;;2.35;0.57;;;19.00;99.90;;;;;;6118779;23;20081;-66
2023/08/31 09:39:42;;;;;;;1.48;0.20;;;19.20;99.90;;;;;;6119774;23;20025;-66
2023/08/31 09:42:08;;;;;;;1.73;0.20;;;19.60;99.90;;;;;;6093965;23;20018;-66
2023/08/31 09:44:40;;;;;;;2.72;0.40;;;19.80;99.90;;;;;;6094252;23;20025;-66
2023/08/31 09:47:05;;;;;;;1.38;0.17;;;20.10;99.90;;;;;;6118429;23;20342;-66
2023/08/31 09:49:33;;;;;;;4.28;0.20;;;20.40;99.90;;;;;;6120111;23;20014;-66
2023/08/31 09:52:03;;;;;;;1.05;0.20;;;20.50;99.90;;;;;;6119628;23;20014;-66
2023/08/31 09:54:29;;;;;;;0.65;0.20;;;20.50;99.90;;;;;;6094108;23;20021;-66
2023/08/31 09:56:58;;;;;;;1.23;0.55;;;20.80;99.90;;;;;;6117225;23;20333;-66
2023/08/31 09:59:24;;;;;;;1.30;0.38;;;21.00;99.90;;;;;;6091765;23;20441;-66
2023/08/31 10:01:49;;;;;;;1.00;0.25;;;21.20;99.90;;;;;;6091129;23;20368;-66
2023/08/31 10:04:16;;;;;;;0.70;0.30;;;21.50;99.90;;;;;;6119945;23;20025;-66
2023/08/31 10:06:42;;;;;;;1.08;0.20;;;21.70;99.90;;;;;;6091993;23;20087;-66
2023/08/31 10:09:09;;;;;;;1.33;0.20;;;21.80;99.90;;;;;;6091594;23;20022;-66
2023/08/31 10:11:36;;;;;;;1.73;0.40;;;21.90;99.90;;;;;;6117088;23;20010;-66
2023/08/31 10:14:04;;;;;;;2.63;0.65;;;22.10;99.90;;;;;;6119777;23;20024;-66
2023/08/31 10:16:30;;;;;;;0.65;0.20;;;22.00;99.90;;;;;;6119029;23;20014;-66
2023/08/31 10:18:56;;;;;;;1.02;0.20;;;22.10;99.90;;;;;;6119338;23;20363;-66
2023/08/31 10:21:22;;;;;;;1.70;0.20;;;22.30;99.90;;;;;;6093008;23;20033;-66
2023/08/31 10:23:48;;;;;;;1.27;0.30;;;22.40;99.90;;;;;;6093996;23;20021;-66
2023/08/31 10:26:28;;;;;;;2.95;0.77;;;22.50;99.90;;;;;;6092940;23;20022;-66
2023/08/31 10:28:55;;;;;;;2.17;0.40;;;22.60;99.90;;;;;;6119591;23;20124;-66
2023/08/31 10:31:23;;;;;;;0.80;0.20;;;22.30;99.90;;;;;;6093198;23;20018;-66
2023/08/31 10:33:59;;;;;;;3.08;0.32;;;22.00;99.90;;;;;;6119989;23;20059;-66
2023/08/31 10:36:55;;;;;;;1.17;0.30;;;21.60;99.90;;;;;;6118899;23;20049;-67
2023/08/31 10:39:20;;;;;;;1.95;0.50;;;21.20;99.90;;;;;;6093898;23;20018;-66
2023/08/31 10:41:57;;;;;;;0.40;0.20;;;21.10;99.90;;;;;;6119244;23;20079;-66
2023/08/31 10:44:24;;;;;;;0.80;0.20;;;21.30;99.90;;;;;;6119956;23;20454;-67
2023/08/31 10:46:51;;;;;;;1.05;0.20;;;21.20;99.90;;;;;;6119912;23;20014;-66
2023/08/31 10:49:19;;;;;;;1.48;0.20;;;21.00;99.90;;;;;;6094240;23;20326;-66
2023/08/31 10:51:50;;;;;;;1.05;0.30;;;21.10;99.90;;;;;;6094334;23;20020;-66
2023/08/31 10:54:24;;;;;;;0.90;0.20;;;21.10;99.90;;;;;;6070991;23;20041;-66
2023/08/31 10:57:05;;;;;;;0.88;0.28;;;21.20;99.90;;;;;;6093681;23;20049;-67
2023/08/31 10:59:51;;;;;;;3.90;0.47;;;21.40;99.90;;;;;;6094225;23;20029;-66
2023/08/31 11:02:47;;;;;;;1.70;0.40;;;21.40;99.90;;;;;;6094952;23;20032;-66
2023/08/31 11:05:14;;;;;;;1.77;0.30;;;21.60;99.90;;;;;;6095263;23;20032;-66
2023/08/31 11:07:42;;;;;;;1.92;0.40;;;21.80;99.90;;;;;;6093678;23;20026;-67
2023/08/31 11:10:18;;;;;;;2.38;0.40;;;21.90;99.90;;;;;;6093555;23;20021;-67
2023/08/31 11:12:52;;;;;;;2.60;0.70;;;22.00;99.90;;;;;;6094904;23;20041;-66
2023/08/31 11:15:20;;;;;;;1.30;0.30;;;22.20;99.90;;;;;;6120217;23;20085;-66
2023/08/31 11:17:50;;;;;;;1.90;0.22;;;22.10;99.90;;;;;;6093590;23;20037;-66
2023/08/31 11:20:17;;;;;;;1.95;0.60;;;22.10;99.90;;;;;;6119736;23;20020;-66
2023/08/31 11:22:45;;;;;;;2.78;0.30;;;22.30;99.90;;;;;;6120669;23;20060;-66
2023/08/31 11:25:13;;;;;;;3.78;0.43;;;22.50;99.90;;;;;;6120239;23;20497;-66
2023/08/31 11:27:39;;;;;;;3.10;0.98;;;22.50;99.90;;;;;;6119880;23;20086;-67
2023/08/31 11:30:13;;;;;;;2.90;0.20;;;22.40;99.90;;;;;;6093587;23;20726;-67
2023/08/31 11:32:50;;;;;;;3.45;0.50;;;22.30;99.90;;;;;;6120886;23;20420;-67
2023/08/31 11:35:16;;;;;;;1.20;0.20;;;22.10;99.90;;;;;;6120200;23;20337;-66
2023/08/31 11:37:44;;;;;;;1.30;0.28;;;21.90;99.90;;;;;;6118832;23;20041;-66
2023/08/31 11:40:10;;;;;;;1.65;0.30;;;21.60;99.90;;;;;;6119636;23;20018;-66
2023/08/31 11:42:36;;;;;;;1.05;0.30;;;21.40;99.90;;;;;;6070085;23;20052;-66
2023/08/31 11:45:05;;;;;;;3.95;0.55;;;21.10;99.90;;;;;;6119827;23;20125;-66
2023/08/31 11:47:31;;;;;;;1.30;0.22;;;21.10;99.90;;;;;;6093866;23;20067;-66
2023/08/31 11:49:58;;;;;;;1.13;0.30;;;21.10;99.90;;;;;;6119809;23;20018;-66
2023/08/31 11:52:24;;;;;;;3.25;0.47;;;21.20;99.90;;;;;;6094516;23;20437;-66
2023/08/31 11:54:53;;;;;;;2.95;0.57;;;21.10;99.90;;;;;;6093689;23;20049;-66
2023/08/31 11:57:24;;;;;;;2.08;0.32;;;21.10;99.90;;;;;;6119429;23;20068;-66
2023/08/31 11:59:50;;;;;;;3.85;0.50;;;21.00;99.90;;;;;;6093556;23;20455;-66
2023/08/31 12:02:18;;;;;;;4.28;0.40;;;21.30;99.90;;;;;;6119997;23;20010;-66
2023/08/31 12:04:44;;;;;;;1.65;0.50;;;21.40;99.90;;;;;;6119464;23;20295;-66
2023/08/31 12:07:10;;;;;;;3.08;0.30;;;21.60;99.90;;;;;;6092321;23;20029;-66
2023/08/31 12:09:36;;;;;;;4.20;0.40;;;21.70;99.90;;;;;;6093008;23;20063;-66
2023/08/31 12:12:04;;;;;;;2.72;0.90;;;21.60;99.90;;;;;;6093963;23;20022;-66
2023/08/31 12:14:30;;;;;;;2.05;0.80;;;21.50;99.90;;;;;;6120625;23;20014;-66
2023/08/31 12:17:05;;;;;;;2.75;0.30;;;21.10;99.90;;;;;;6119313;23;20117;-66
2023/08/31 12:19:32;;;;;;;3.25;1.20;;;20.70;99.90;;;;;;6120213;23;20018;-68
2023/08/31 12:21:59;;;;;;;3.03;1.10;;;20.50;99.90;;;;;;6119866;23;20093;-68
2023/08/31 12:24:25;;;;;;;8.68;0.98;;;20.10;99.90;;;;;;6120645;23;20029;-68
2023/08/31 12:26:53;;;;;;;2.53;0.70;;;20.10;99.90;;;;;;6093236;23;20441;-67
2023/08/31 12:29:19;;;;;;;1.52;0.40;;;20.10;99.90;;;;;;6120220;23;20041;-67
2023/08/31 12:31:45;;;;;;;1.30;0.40;;;20.40;99.90;;;;;;6119537;23;20438;-67
2023/08/31 12:34:11;;;;;;;6.63;1.55;;;20.60;99.90;;;;;;6120365;23;20063;-67
2023/08/31 12:36:38;;;;;;;2.58;0.52;;;20.70;99.90;;;;;;6092550;23;20452;-67
2023/08/31 12:39:06;;;;;;;0.88;0.40;;;20.90;99.90;;;;;;6094249;23;20017;-67
2023/08/31 12:41:32;;;;;;;1.83;0.75;;;21.00;99.90;;;;;;6093733;23;20026;-67
2023/08/31 12:43:58;;;;;;;3.38;0.50;;;21.20;99.90;;;;;;6120556;23;20014;-67
2023/08/31 12:46:24;;;;;;;3.83;0.80;;;21.20;99.90;;;;;;6093104;23;20333;-67
2023/08/31 12:48:50;;;;;;;1.73;0.30;;;21.30;99.90;;;;;;6119527;23;20018;-67